Time;durP1;ratioP1;P1;durP2;ratioP2;P2;SDS_P1;SDS_P2;PMS_P1;PMS_P2;Temp;Humidity;BMP_temperature;BMP_pressure;BME280_temperature;BME280_humidity;BME280_pressure;Samples;Min_cycle;Max_cycle;Signal;HPM_P1;HPM_P2
2022/07/16 00:02:27;;;;;;;10.98;2.65;;;16.70;86.10;;;;;;5063511;28;20037;-50
2022/07/16 00:04:53;;;;;;;5.47;2.20;;;16.60;86.30;;;;;;5061960;28;20075;-48
2022/07/16 00:07:19;;;;;;;4.93;1.88;;;16.60;86.70;;;;;;5058568;28;20049;-48
2022/07/16 00:09:45;;;;;;;2.75;1.90;;;16.60;86.70;;;;;;5058904;28;20037;-49
2022/07/16 00:12:10;;;;;;;1.50;1.40;;;16.50;87.10;;;;;;5061897;28;20119;-51
2022/07/16 00:14:37;;;;;;;5.05;1.70;;;16.50;87.60;;;;;;5062045;28;20166;-53
2022/07/16 00:17:03;;;;;;;3.33;1.90;;;16.40;88.10;;;;;;5059814;28;20072;-52
2022/07/16 00:19:28;;;;;;;2.38;1.70;;;16.40;88.10;;;;;;5044830;28;20025;-50
2022/07/16 00:21:56;;;;;;;2.63;1.50;;;16.40;88.30;;;;;;5064187;28;20414;-48
2022/07/16 00:24:22;;;;;;;4.22;1.90;;;16.40;88.50;;;;;;5060233;28;20043;-45
2022/07/16 00:26:48;;;;;;;2.85;1.70;;;16.40;88.30;;;;;;5060663;28;20020;-48
2022/07/16 00:29:15;;;;;;;5.32;2.20;;;16.40;88.40;;;;;;5061880;28;20035;-50
2022/07/16 00:31:44;;;;;;;2.35;1.83;;;16.40;88.60;;;;;;5062644;28;20024;-49
2022/07/16 00:34:10;;;;;;;2.92;1.63;;;16.30;88.70;;;;;;5061227;28;20033;-49
2022/07/16 00:39:05;;;;;;;4.57;1.63;;;16.30;90.20;;;;;;4966726;28;20043;-53
2022/07/16 00:41:31;;;;;;;4.25;1.80;;;16.20;90.40;;;;;;4970791;28;20482;-51
2022/07/16 00:44:01;;;;;;;63.25;40.67;;;16.20;90.40;;;;;;4969350;28;20467;-52
2022/07/16 00:46:26;;;;;;;13.70;7.43;;;16.10;90.50;;;;;;4969546;28;20019;-52
2022/07/16 00:48:52;;;;;;;6.80;2.67;;;16.10;90.60;;;;;;4970072;28;20041;-54
2022/07/16 00:51:18;;;;;;;9.05;1.88;;;16.00;90.90;;;;;;4970778;28;20031;-54
2022/07/16 00:53:44;;;;;;;7.00;2.40;;;15.90;91.20;;;;;;4970764;28;20062;-52
2022/07/16 00:56:12;;;;;;;3.88;2.17;;;15.90;91.10;;;;;;4970744;28;20072;-55
2022/07/16 00:58:40;;;;;;;2.20;2.00;;;15.80;91.20;;;;;;4968409;28;20042;-52
2022/07/16 01:01:06;;;;;;;6.57;2.20;;;15.70;91.60;;;;;;4969334;28;20027;-56
2022/07/16 01:03:33;;;;;;;3.45;1.90;;;15.70;91.90;;;;;;4968910;28;20114;-53
2022/07/16 01:05:59;;;;;;;5.50;1.98;;;15.60;91.80;;;;;;4969307;28;20034;-57
2022/07/16 01:08:25;;;;;;;6.20;2.30;;;15.60;92.10;;;;;;4969734;28;20030;-54
2022/07/16 01:10:51;;;;;;;2.30;1.73;;;15.60;92.30;;;;;;4970715;28;20046;-52
2022/07/16 01:13:17;;;;;;;6.93;2.53;;;15.60;92.40;;;;;;4970392;28;20023;-51
2022/07/16 01:15:43;;;;;;;3.25;2.22;;;15.70;92.40;;;;;;4968599;28;20027;-54
2022/07/16 01:18:08;;;;;;;5.93;2.03;;;15.70;92.80;;;;;;4969422;28;20076;-53
2022/07/16 01:20:34;;;;;;;2.42;1.95;;;15.70;92.80;;;;;;4970300;28;20038;-51
2022/07/16 01:23:00;;;;;;;6.35;2.70;;;15.70;92.70;;;;;;4970499;28;20098;-53
2022/07/16 01:25:26;;;;;;;3.08;2.08;;;15.70;92.70;;;;;;4970680;28;20125;-56
2022/07/16 01:27:52;;;;;;;5.22;2.38;;;15.60;92.70;;;;;;4969734;28;20031;-54
2022/07/16 01:30:17;;;;;;;3.40;2.40;;;15.60;92.70;;;;;;4970372;28;20023;-56
2022/07/16 01:32:43;;;;;;;6.45;2.40;;;15.60;92.60;;;;;;4968892;28;20122;-50
2022/07/16 01:35:09;;;;;;;3.15;2.90;;;15.60;92.60;;;;;;4969015;28;20129;-54
2022/07/16 01:37:34;;;;;;;8.60;2.40;;;15.50;92.60;;;;;;4967888;28;20035;-56
2022/07/16 01:40:00;;;;;;;4.57;2.70;;;15.50;92.90;;;;;;4970079;28;20038;-52
2022/07/16 01:42:26;;;;;;;8.20;2.10;;;15.40;92.80;;;;;;4970071;28;20035;-57
2022/07/16 01:44:51;;;;;;;5.47;3.03;;;15.40;93.00;;;;;;4969913;28;20046;-53
2022/07/16 01:47:17;;;;;;;2.47;2.15;;;15.40;93.00;;;;;;4969160;28;20023;-55
2022/07/16 01:49:42;;;;;;;4.35;3.15;;;15.40;93.00;;;;;;4969805;28;20110;-55
2022/07/16 01:52:19;;;;;;;3.95;2.60;;;15.40;93.20;;;;;;4968621;28;20092;-54
2022/07/16 01:54:50;;;;;;;4.90;2.45;;;15.30;93.50;;;;;;4969811;28;20506;-54
2022/07/16 01:57:17;;;;;;;2.75;2.45;;;15.30;93.90;;;;;;4967589;28;20498;-56
2022/07/16 01:59:43;;;;;;;3.85;2.38;;;15.30;94.00;;;;;;4969610;28;20039;-53
2022/07/16 02:02:09;;;;;;;7.82;2.30;;;15.30;93.90;;;;;;4969551;28;20023;-54
2022/07/16 02:04:35;;;;;;;6.82;3.17;;;15.30;93.90;;;;;;4969756;28;20026;-56
2022/07/16 02:07:01;;;;;;;6.45;2.67;;;15.30;94.00;;;;;;4968912;28;20394;-55
2022/07/16 02:09:26;;;;;;;3.35;2.55;;;15.30;93.90;;;;;;4969331;28;20042;-51
2022/07/16 02:11:52;;;;;;;4.13;2.35;;;15.30;93.90;;;;;;4969420;28;20038;-51
2022/07/16 02:14:18;;;;;;;3.65;2.28;;;15.30;93.90;;;;;;4970188;28;20188;-52
2022/07/16 02:16:44;;;;;;;2.40;2.08;;;15.30;93.90;;;;;;4972718;28;20031;-50
2022/07/16 02:19:10;;;;;;;5.68;2.60;;;15.30;94.10;;;;;;4972615;28;20027;-55
2022/07/16 02:21:36;;;;;;;3.15;2.55;;;15.20;94.10;;;;;;4972912;28;20106;-54
2022/07/16 02:24:02;;;;;;;8.63;2.50;;;15.20;94.20;;;;;;4971628;28;20073;-52
2022/07/16 02:26:28;;;;;;;4.60;2.40;;;15.20;94.20;;;;;;4972807;28;20053;-52
2022/07/16 02:28:53;;;;;;;3.45;2.45;;;15.20;95.00;;;;;;4970788;28;20027;-56
2022/07/16 02:31:20;;;;;;;2.88;2.25;;;15.20;95.00;;;;;;4972752;28;20397;-51
2022/07/16 02:33:45;;;;;;;2.60;2.40;;;15.10;95.10;;;;;;4972809;28;20027;-55
2022/07/16 02:36:11;;;;;;;8.20;3.13;;;15.10;95.30;;;;;;4972698;28;20115;-56
2022/07/16 02:38:36;;;;;;;6.78;3.25;;;15.10;95.20;;;;;;4971763;28;20395;-55
2022/07/16 02:41:02;;;;;;;3.20;2.35;;;15.10;95.50;;;;;;4972574;28;20027;-55
2022/07/16 02:43:28;;;;;;;8.27;3.42;;;15.10;95.40;;;;;;4971309;28;20031;-54
2022/07/16 02:45:54;;;;;;;4.68;2.58;;;15.10;95.40;;;;;;4972536;28;20525;-53
2022/07/16 02:48:19;;;;;;;3.92;2.63;;;15.00;95.50;;;;;;4971893;28;20023;-57
2022/07/16 02:50:45;;;;;;;6.05;2.97;;;14.90;95.50;;;;;;4972496;28;20202;-54
2022/07/16 02:53:10;;;;;;;6.57;2.67;;;14.90;95.60;;;;;;4972461;28;20502;-54
2022/07/16 02:55:36;;;;;;;4.13;2.55;;;14.90;95.80;;;;;;4972387;28;20482;-51
2022/07/16 02:58:02;;;;;;;5.22;3.20;;;14.80;95.90;;;;;;4971476;28;20042;-57
2022/07/16 03:00:28;;;;;;;5.22;3.75;;;14.70;95.90;;;;;;4972123;28;20414;-58
2022/07/16 03:02:55;;;;;;;5.68;2.70;;;14.70;95.90;;;;;;4972129;28;20030;-57
2022/07/16 03:05:20;;;;;;;3.90;3.00;;;14.60;96.10;;;;;;4972305;28;20030;-51
2022/07/16 03:07:46;;;;;;;4.93;2.80;;;14.60;96.20;;;;;;4971716;28;20026;-54
2022/07/16 03:10:12;;;;;;;13.50;3.67;;;14.50;96.40;;;;;;4972160;28;20110;-56
2022/07/16 03:12:38;;;;;;;5.38;3.20;;;14.50;96.60;;;;;;4972061;28;20023;-56
2022/07/16 03:15:04;;;;;;;3.75;3.13;;;14.40;96.60;;;;;;4971013;28;20037;-51
2022/07/16 03:17:30;;;;;;;6.43;3.00;;;14.40;96.60;;;;;;4971156;28;20022;-52
2022/07/16 03:19:56;;;;;;;7.63;3.83;;;14.30;97.00;;;;;;4972023;28;20054;-52
2022/07/16 03:22:21;;;;;;;4.93;3.03;;;14.30;97.30;;;;;;4971945;28;20026;-52
2022/07/16 03:24:47;;;;;;;4.32;3.20;;;14.20;97.70;;;;;;4971781;28;20377;-54
2022/07/16 03:27:13;;;;;;;8.63;3.42;;;14.20;97.90;;;;;;4971064;28;20019;-54
2022/07/16 03:29:39;;;;;;;4.22;3.13;;;14.20;98.00;;;;;;4971960;28;20123;-55
2022/07/16 03:32:04;;;;;;;7.53;3.47;;;14.20;98.00;;;;;;4971859;28;20034;-55
2022/07/16 03:34:31;;;;;;;5.65;3.00;;;14.20;98.20;;;;;;4971886;28;20475;-53
2022/07/16 03:36:56;;;;;;;6.63;2.97;;;14.20;98.20;;;;;;4970878;28;20025;-51
2022/07/16 03:39:22;;;;;;;3.42;2.85;;;14.20;98.20;;;;;;4971469;28;20550;-54
2022/07/16 03:41:47;;;;;;;4.90;3.13;;;14.20;98.20;;;;;;4971724;28;20023;-52
2022/07/16 03:44:13;;;;;;;3.88;3.15;;;14.20;98.20;;;;;;4971636;28;20062;-51
2022/07/16 03:46:39;;;;;;;5.18;3.30;;;14.20;98.50;;;;;;4971657;28;20588;-52
2022/07/16 03:49:05;;;;;;;7.32;3.25;;;14.20;98.40;;;;;;4970920;28;20042;-55
2022/07/16 03:51:31;;;;;;;4.50;3.42;;;14.20;98.50;;;;;;4970538;28;20449;-53
2022/07/16 03:53:57;;;;;;;5.20;3.30;;;14.20;98.50;;;;;;4971274;28;20132;-55
2022/07/16 03:56:24;;;;;;;3.17;2.72;;;14.20;98.10;;;;;;4971522;28;20026;-56
2022/07/16 03:58:50;;;;;;;5.47;3.40;;;14.30;98.40;;;;;;4970536;28;20030;-53
2022/07/16 04:01:16;;;;;;;4.25;3.30;;;14.30;98.20;;;;;;4971328;28;20023;-52
2022/07/16 04:03:41;;;;;;;4.90;3.22;;;14.30;98.30;;;;;;4971370;28;20076;-50
2022/07/16 04:06:07;;;;;;;7.70;3.08;;;14.30;98.30;;;;;;4971334;28;20483;-55
2022/07/16 04:08:33;;;;;;;6.57;3.10;;;14.40;98.30;;;;;;4970387;28;20038;-52
2022/07/16 04:10:59;;;;;;;4.07;3.08;;;14.40;98.20;;;;;;4971404;28;20555;-54
2022/07/16 04:13:25;;;;;;;4.40;3.13;;;14.50;98.50;;;;;;4971137;28;20034;-49
2022/07/16 04:15:51;;;;;;;9.32;3.72;;;14.50;98.60;;;;;;4969481;28;20034;-56
2022/07/16 04:18:16;;;;;;;2.88;2.65;;;14.50;98.50;;;;;;4970248;28;20030;-55
2022/07/16 04:20:42;;;;;;;3.80;2.65;;;14.50;98.50;;;;;;4971131;28;20034;-55
2022/07/16 04:23:07;;;;;;;5.68;3.63;;;14.60;98.40;;;;;;4971059;28;20035;-52
2022/07/16 04:25:33;;;;;;;9.00;2.78;;;14.60;98.40;;;;;;4971189;28;20587;-54
2022/07/16 04:27:59;;;;;;;3.80;3.20;;;14.70;98.60;;;;;;4970662;28;20496;-49
2022/07/16 04:30:24;;;;;;;2.83;2.63;;;14.70;98.70;;;;;;4970975;28;20104;-53
2022/07/16 04:32:50;;;;;;;6.20;2.60;;;14.70;98.60;;;;;;4970665;28;20371;-52
2022/07/16 04:35:16;;;;;;;4.28;2.80;;;14.80;98.50;;;;;;4970935;28;20027;-52
2022/07/16 04:37:43;;;;;;;4.28;3.25;;;14.90;98.60;;;;;;4969282;28;20497;-54
2022/07/16 04:40:10;;;;;;;5.45;2.70;;;15.00;98.50;;;;;;4970798;28;20037;-52
2022/07/16 04:42:37;;;;;;;7.15;2.65;;;15.10;98.40;;;;;;4970692;28;20027;-51
2022/07/16 04:45:03;;;;;;;5.22;2.88;;;15.20;98.10;;;;;;4970799;28;20023;-53
2022/07/16 04:47:29;;;;;;;2.47;2.28;;;15.30;97.80;;;;;;4969926;28;20482;-54
2022/07/16 04:49:54;;;;;;;5.13;3.40;;;15.60;97.60;;;;;;4970665;28;20110;-52
2022/07/16 04:52:20;;;;;;;3.10;2.80;;;15.70;97.30;;;;;;4970561;28;20398;-52
2022/07/16 04:54:45;;;;;;;6.30;3.25;;;15.90;97.00;;;;;;4970645;28;20027;-50
2022/07/16 04:57:11;;;;;;;4.38;2.63;;;16.20;96.80;;;;;;4969783;28;20034;-51
2022/07/16 04:59:36;;;;;;;3.38;2.45;;;16.50;96.20;;;;;;4970558;28;20114;-51
2022/07/16 05:04:46;;;;;;;4.97;2.92;;;17.60;94.90;;;;;;4970627;28;20065;-50
2022/07/16 05:07:11;;;;;;;5.95;2.30;;;18.60;92.60;;;;;;4970118;28;20062;-56
2022/07/16 05:09:37;;;;;;;2.50;1.90;;;19.60;90.20;;;;;;4967227;28;20497;-52
2022/07/16 05:12:02;;;;;;;3.50;2.15;;;20.60;86.40;;;;;;5012062;28;20101;-53
2022/07/16 05:14:28;;;;;;;2.70;2.17;;;21.60;82.60;;;;;;4968526;28;20871;-62
2022/07/16 05:16:55;;;;;;;4.05;1.90;;;22.40;80.40;;;;;;4968337;28;20035;-50
2022/07/16 05:19:21;;;;;;;3.08;1.77;;;23.20;77.10;;;;;;4970690;28;20216;-52
2022/07/16 05:21:46;;;;;;;3.22;1.80;;;24.00;74.40;;;;;;4970451;28;20069;-55
2022/07/16 05:24:11;;;;;;;5.35;1.80;;;24.70;72.30;;;;;;4970325;28;20052;-55
2022/07/16 05:26:37;;;;;;;1.70;1.40;;;25.30;70.20;;;;;;4970405;28;20038;-57
2022/07/16 05:29:03;;;;;;;4.55;2.08;;;25.60;69.80;;;;;;4969459;28;20042;-53
2022/07/16 05:31:28;;;;;;;3.55;1.80;;;25.90;69.50;;;;;;4969147;28;20529;-54
2022/07/16 05:33:53;;;;;;;3.83;1.70;;;25.80;67.30;;;;;;4970024;28;20038;-53
2022/07/16 05:36:19;;;;;;;4.50;1.58;;;25.90;67.90;;;;;;4969916;28;20026;-55
2022/07/16 05:38:44;;;;;;;6.03;1.50;;;26.30;67.60;;;;;;4969234;28;20114;-51
2022/07/16 05:41:10;;;;;;;4.35;1.90;;;26.80;66.60;;;;;;4968545;28;20122;-54
2022/07/16 05:43:36;;;;;;;4.45;1.20;;;26.70;65.00;;;;;;4970081;28;20030;-55
2022/07/16 05:46:01;;;;;;;6.00;1.63;;;26.30;65.30;;;;;;4970437;28;20058;-50
2022/07/16 05:48:28;;;;;;;6.75;1.60;;;26.30;66.70;;;;;;4969346;28;20039;-50
2022/07/16 05:50:54;;;;;;;3.63;1.63;;;26.90;66.20;;;;;;4972741;28;20430;-50
2022/07/16 05:53:19;;;;;;;8.85;1.70;;;27.20;65.60;;;;;;4973283;28;20114;-54
2022/07/16 05:55:45;;;;;;;3.33;1.45;;;27.80;64.30;;;;;;4973392;28;20039;-52
2022/07/16 05:58:10;;;;;;;2.25;1.38;;;28.30;63.50;;;;;;4972753;28;20114;-51
2022/07/16 06:00:36;;;;;;;4.53;1.85;;;28.90;62.50;;;;;;4973188;28;20037;-53
2022/07/16 06:03:02;;;;;;;2.33;1.38;;;29.50;59.60;;;;;;4973089;28;20019;-52
2022/07/16 06:05:27;;;;;;;5.45;1.65;;;28.70;60.40;;;;;;4973199;28;20110;-51
2022/07/16 06:07:53;;;;;;;2.83;1.45;;;28.30;60.90;;;;;;4971402;28;20505;-55
2022/07/16 06:10:19;;;;;;;3.97;1.25;;;28.90;60.60;;;;;;4973142;28;20102;-56
2022/07/16 06:12:44;;;;;;;5.22;1.63;;;29.40;59.40;;;;;;4973203;28;20031;-52
2022/07/16 06:15:11;;;;;;;2.90;1.63;;;29.70;59.50;;;;;;4973071;28;20026;-50
2022/07/16 06:17:37;;;;;;;8.73;2.38;;;29.80;58.90;;;;;;4972219;28;20019;-52
2022/07/16 06:20:04;;;;;;;6.30;1.70;;;29.80;59.30;;;;;;4973028;28;20062;-53
2022/07/16 06:22:30;;;;;;;2.88;1.50;;;29.50;59.60;;;;;;4973318;28;20395;-54
2022/07/16 06:24:56;;;;;;;5.47;1.38;;;30.10;59.60;;;;;;4971937;28;20019;-51
2022/07/16 06:27:21;;;;;;;4.03;1.15;;;30.30;58.70;;;;;;4972202;28;20474;-56
2022/07/16 06:29:47;;;;;;;6.20;1.80;;;30.80;58.00;;;;;;4972910;28;20060;-50
2022/07/16 06:32:12;;;;;;;3.05;1.67;;;31.40;56.70;;;;;;4971272;28;20062;-51
2022/07/16 06:34:38;;;;;;;2.67;1.35;;;31.60;56.40;;;;;;4972785;28;20144;-52
2022/07/16 06:37:03;;;;;;;2.38;1.17;;;31.30;56.80;;;;;;4971788;28;20425;-52
2022/07/16 06:39:29;;;;;;;5.32;1.40;;;31.50;56.00;;;;;;5080858;23;20048;-50
2022/07/16 06:41:54;;;;;;;3.00;1.55;;;31.70;56.10;;;;;;5073459;28;20025;-47
2022/07/16 06:44:20;;;;;;;2.97;1.30;;;32.20;55.80;;;;;;5074397;28;20472;-54
2022/07/16 06:46:45;;;;;;;4.07;1.30;;;32.20;55.60;;;;;;5074028;28;20052;-45
2022/07/16 06:49:11;;;;;;;9.18;1.30;;;32.30;55.30;;;;;;5074024;28;20025;-47
2022/07/16 06:51:36;;;;;;;2.42;1.45;;;32.40;55.40;;;;;;5073673;28;20036;-49
2022/07/16 06:54:02;;;;;;;6.40;1.23;;;32.70;54.90;;;;;;5073896;28;20028;-53
2022/07/16 06:56:27;;;;;;;1.85;0.95;;;33.00;54.10;;;;;;5074254;28;20033;-52
2022/07/16 06:58:53;;;;;;;51.45;5.47;;;33.10;54.10;;;;;;5072848;28;20146;-53
2022/07/16 07:01:18;;;;;;;6.65;1.90;;;33.10;53.60;;;;;;5072901;28;20029;-50
2022/07/16 07:03:44;;;;;;;6.50;1.65;;;32.80;54.00;;;;;;5070152;28;20020;-46
2022/07/16 07:06:09;;;;;;;5.53;1.25;;;33.40;53.70;;;;;;5053262;28;20024;-53
2022/07/16 07:08:35;;;;;;;5.28;1.35;;;33.60;53.00;;;;;;5073090;28;20024;-48
2022/07/16 07:11:01;;;;;;;3.67;1.30;;;33.60;53.30;;;;;;5073753;28;20028;-50
2022/07/16 07:13:29;;;;;;;6.75;1.30;;;33.90;52.90;;;;;;5057118;28;20104;-52
2022/07/16 07:15:54;;;;;;;3.08;1.23;;;34.10;52.30;;;;;;5072929;28;20054;-50
2022/07/16 07:18:20;;;;;;;2.63;1.10;;;33.40;53.20;;;;;;5072717;28;20028;-48
2022/07/16 07:20:46;;;;;;;5.10;1.83;;;32.90;53.30;;;;;;5073500;28;20016;-51
2022/07/16 07:23:12;;;;;;;4.10;1.00;;;33.70;53.10;;;;;;5072861;28;20024;-53
2022/07/16 07:25:37;;;;;;;6.10;1.52;;;33.40;53.30;;;;;;5073536;28;20468;-50
2022/07/16 07:28:03;;;;;;;2.97;1.00;;;33.50;53.30;;;;;;5059047;28;20025;-45
2022/07/16 07:30:29;;;;;;;2.97;0.98;;;33.90;52.80;;;;;;5054700;28;20028;-46
2022/07/16 07:32:55;;;;;;;6.22;1.17;;;33.60;52.50;;;;;;5062441;28;20028;-47
2022/07/16 07:35:21;;;;;;;4.70;1.83;;;33.90;52.90;;;;;;5048120;28;20370;-48
2022/07/16 07:37:46;;;;;;;3.92;1.17;;;34.30;52.30;;;;;;5052548;28;20024;-50
2022/07/16 07:40:13;;;;;;;4.25;1.55;;;34.80;52.20;;;;;;5059040;28;20021;-52
2022/07/16 07:42:38;;;;;;;7.78;1.27;;;35.30;51.30;;;;;;5063964;28;20047;-54
2022/07/16 07:45:05;;;;;;;7.95;1.30;;;35.00;51.50;;;;;;5050429;28;20048;-49
2022/07/16 07:47:31;;;;;;;4.53;1.33;;;35.30;51.20;;;;;;5065057;28;20596;-49
2022/07/16 07:49:57;;;;;;;3.65;0.98;;;35.00;51.60;;;;;;5062137;28;20052;-48
2022/07/16 07:52:23;;;;;;;1.98;1.00;;;35.10;51.70;;;;;;5058186;28;20313;-50
2022/07/16 07:54:48;;;;;;;2.75;0.80;;;35.70;51.20;;;;;;5056364;28;20036;-47
2022/07/16 07:57:13;;;;;;;2.45;1.20;;;35.70;51.30;;;;;;5070140;28;20090;-47
2022/07/16 07:59:39;;;;;;;3.08;1.45;;;35.70;51.00;;;;;;5062520;28;20032;-45
2022/07/16 08:02:05;;;;;;;3.40;1.00;;;35.90;50.30;;;;;;5056829;28;20032;-48
2022/07/16 08:04:33;;;;;;;3.25;1.27;;;35.80;50.20;;;;;;5052358;28;20558;-44
2022/07/16 08:06:58;;;;;;;9.40;1.60;;;35.30;50.70;;;;;;5057942;28;20024;-47
2022/07/16 08:09:24;;;;;;;3.45;1.40;;;35.20;51.00;;;;;;5062994;28;20037;-53
2022/07/16 08:11:50;;;;;;;1.80;1.10;;;34.20;51.20;;;;;;5069091;28;20025;-52
2022/07/16 08:14:15;;;;;;;3.95;1.85;;;34.10;51.70;;;;;;5069706;28;20040;-54
2022/07/16 08:16:41;;;;;;;13.55;8.38;;;34.40;51.60;;;;;;5070354;28;20396;-54
2022/07/16 08:19:06;;;;;;;5.63;2.25;;;34.30;51.60;;;;;;5067255;28;20028;-54
2022/07/16 08:21:32;;;;;;;3.83;1.20;;;33.80;51.60;;;;;;5065708;28;20036;-49
2022/07/16 08:26:41;;;;;;;4.68;1.33;;;33.50;52.60;;;;;;5067754;28;20032;-46
2022/07/16 08:29:07;;;;;;;3.83;1.70;;;33.70;52.30;;;;;;5058260;28;20423;-47
2022/07/16 08:31:32;;;;;;;6.25;2.03;;;33.60;51.70;;;;;;5068323;28;20036;-48
2022/07/16 08:33:57;;;;;;;2.65;0.90;;;33.30;51.80;;;;;;5061569;28;20037;-47
2022/07/16 08:36:23;;;;;;;4.18;1.13;;;33.20;52.30;;;;;;5067543;28;20060;-48
2022/07/16 08:38:49;;;;;;;6.38;1.20;;;32.70;53.50;;;;;;5062642;28;20111;-49
2022/07/16 08:41:15;;;;;;;4.78;1.10;;;31.90;53.10;;;;;;5053593;28;20411;-51
2022/07/16 08:43:41;;;;;;;1.65;1.08;;;30.80;55.50;;;;;;5058076;28;20465;-46
2022/07/16 08:46:07;;;;;;;3.80;1.42;;;30.50;56.10;;;;;;5068134;28;20029;-47
2022/07/16 08:48:33;;;;;;;4.38;1.10;;;30.40;55.70;;;;;;5053450;28;20029;-47
2022/07/16 08:51:01;;;;;;;2.35;1.50;;;30.10;56.20;;;;;;5051746;28;20078;-44
2022/07/16 08:53:31;;;;;;;1.42;1.20;;;29.40;56.90;;;;;;5054448;28;20444;-46
2022/07/16 08:55:59;;;;;;;2.65;1.33;;;29.10;58.40;;;;;;5067184;28;20028;-48
2022/07/16 08:58:27;;;;;;;2.20;1.10;;;29.00;57.50;;;;;;5055803;28;20040;-45
2022/07/16 09:00:53;;;;;;;1.60;1.13;;;29.20;57.20;;;;;;5066415;28;20124;-50
2022/07/16 09:03:19;;;;;;;4.85;1.60;;;29.30;57.80;;;;;;5060751;28;20538;-48
2022/07/16 09:05:49;;;;;;;1.88;1.20;;;29.00;56.00;;;;;;5064386;28;20020;-48
2022/07/16 09:08:16;;;;;;;2.80;1.40;;;28.30;57.00;;;;;;5058785;28;20980;-47
2022/07/16 09:10:41;;;;;;;2.70;1.38;;;27.90;58.40;;;;;;5065970;28;20036;-52
2022/07/16 09:13:09;;;;;;;4.32;1.42;;;27.70;58.50;;;;;;5067778;28;20032;-45
2022/07/16 09:15:38;;;;;;;3.78;1.50;;;28.00;59.00;;;;;;5051198;28;20388;-44
2022/07/16 09:18:17;;;;;;;3.85;1.60;;;28.40;58.60;;;;;;5062173;28;20021;-45
2022/07/16 09:20:45;;;;;;;1.60;1.50;;;28.40;58.20;;;;;;5050093;28;20070;-51
2022/07/16 09:23:26;;;;;;;2.95;1.40;;;28.70;58.00;;;;;;5061721;28;20020;-49
2022/07/16 09:25:55;;;;;;;3.10;1.50;;;28.50;58.80;;;;;;5072251;28;20021;-47
2022/07/16 09:28:22;;;;;;;3.90;1.13;;;28.50;58.10;;;;;;5071301;28;20035;-49
2022/07/16 09:30:48;;;;;;;4.78;1.88;;;28.60;58.10;;;;;;5071678;28;20024;-52
2022/07/16 09:33:18;;;;;;;13.65;9.30;;;28.40;58.40;;;;;;5071526;28;20162;-49
2022/07/16 09:35:44;;;;;;;5.13;2.20;;;28.60;58.60;;;;;;5071741;28;20377;-51
2022/07/16 09:38:11;;;;;;;5.43;2.63;;;28.30;58.00;;;;;;5069063;28;20032;-48
2022/07/16 09:40:43;;;;;;;9.82;6.85;;;28.00;57.50;;;;;;5071478;28;20017;-49
2022/07/16 09:43:11;;;;;;;5.60;1.63;;;27.80;59.20;;;;;;5071761;28;20046;-45
2022/07/16 09:45:41;;;;;;;3.30;1.27;;;27.70;59.60;;;;;;5071937;28;20518;-44
2022/07/16 09:48:29;;;;;;;1.95;1.05;;;27.80;59.00;;;;;;5070800;28;20033;-52
2022/07/16 09:50:57;;;;;;;5.95;1.55;;;27.90;58.60;;;;;;5071715;28;20040;-46
2022/07/16 09:53:26;;;;;;;8.43;1.48;;;27.60;58.90;;;;;;5071594;28;20028;-49
2022/07/16 09:55:59;;;;;;;3.58;1.45;;;27.40;59.50;;;;;;5071558;28;20062;-46
2022/07/16 09:58:25;;;;;;;3.42;1.67;;;27.50;59.20;;;;;;5071205;28;20032;-46
2022/07/16 10:00:50;;;;;;;3.40;1.30;;;27.40;59.40;;;;;;5071440;28;20054;-49
2022/07/16 10:03:16;;;;;;;1.40;1.30;;;27.50;60.10;;;;;;5071438;28;20362;-49
2022/07/16 10:05:42;;;;;;;3.13;1.73;;;27.60;59.50;;;;;;5071518;28;20063;-45
2022/07/16 10:08:07;;;;;;;3.08;1.48;;;27.50;59.40;;;;;;5070955;28;20025;-48
2022/07/16 10:10:33;;;;;;;3.80;1.60;;;27.10;59.60;;;;;;5071533;28;20070;-51
2022/07/16 10:12:59;;;;;;;2.55;1.30;;;26.90;59.80;;;;;;5071257;28;20036;-52
2022/07/16 10:15:24;;;;;;;2.08;1.85;;;26.90;60.30;;;;;;5071243;28;20024;-49
2022/07/16 10:17:50;;;;;;;1.42;1.33;;;26.60;60.10;;;;;;5070443;28;20107;-49
2022/07/16 10:20:19;;;;;;;2.35;1.45;;;26.50;60.10;;;;;;5071406;28;20035;-44
2022/07/16 10:22:47;;;;;;;9.30;1.58;;;26.30;60.30;;;;;;5071158;28;20016;-49
2022/07/16 10:25:18;;;;;;;2.25;1.50;;;26.10;60.70;;;;;;5071458;28;20024;-52
2022/07/16 10:27:44;;;;;;;2.63;1.60;;;26.10;61.90;;;;;;5070931;28;20500;-51
2022/07/16 10:30:22;;;;;;;2.60;1.63;;;26.20;60.70;;;;;;5071747;28;20481;-47
2022/07/16 10:32:59;;;;;;;3.22;1.80;;;26.40;61.90;;;;;;5071506;28;20028;-49
2022/07/16 10:35:32;;;;;;;7.82;1.50;;;26.60;61.20;;;;;;5072110;28;20396;-49
2022/07/16 10:38:18;;;;;;;5.00;1.40;;;26.60;60.80;;;;;;5074079;28;20082;-54
2022/07/16 10:40:45;;;;;;;4.00;1.20;;;26.60;60.80;;;;;;5075196;28;20107;-47
2022/07/16 10:43:16;;;;;;;9.75;3.53;;;26.40;61.20;;;;;;5074642;28;20032;-51
2022/07/16 10:45:54;;;;;;;1.48;1.38;;;26.20;61.20;;;;;;5074797;28;20048;-55
2022/07/16 10:48:43;;;;;;;1.10;1.10;;;26.20;61.40;;;;;;5073986;28;20116;-49
2022/07/16 10:51:16;;;;;;;2.75;1.52;;;26.10;61.40;;;;;;5036823;28;20036;-48
2022/07/16 10:53:57;;;;;;;7.90;1.90;;;25.80;61.70;;;;;;5066067;28;20029;-52
2022/07/16 10:56:33;;;;;;;28.17;21.52;;;25.70;62.40;;;;;;5054552;28;20529;-51
2022/07/16 10:58:58;;;;;;;3.88;2.20;;;25.80;62.30;;;;;;5053671;28;20029;-50
2022/07/16 11:01:24;;;;;;;1.65;1.23;;;25.80;62.00;;;;;;5053152;28;20023;-52
2022/07/16 11:03:53;;;;;;;2.90;1.42;;;25.90;62.30;;;;;;5054627;28;20029;-48
2022/07/16 11:06:20;;;;;;;2.60;1.38;;;25.90;62.20;;;;;;5054650;28;20108;-51
2022/07/16 11:08:52;;;;;;;2.78;1.45;;;26.10;61.90;;;;;;5053609;28;20400;-48
2022/07/16 11:11:18;;;;;;;2.00;1.60;;;26.10;61.80;;;;;;5054341;28;20028;-50
2022/07/16 11:13:45;;;;;;;2.40;1.60;;;26.10;61.60;;;;;;5054148;28;20032;-47
2022/07/16 11:16:11;;;;;;;3.03;1.20;;;26.10;62.00;;;;;;5054179;28;20032;-49
2022/07/16 11:18:40;;;;;;;2.95;1.42;;;26.00;61.30;;;;;;5053303;28;20666;-52
2022/07/16 11:21:07;;;;;;;2.22;1.45;;;25.80;61.50;;;;;;5054416;28;20397;-49
2022/07/16 11:24:01;;;;;;;7.50;1.30;;;25.90;61.40;;;;;;5053922;28;20062;-47
2022/07/16 11:26:29;;;;;;;2.75;1.48;;;26.20;62.20;;;;;;5054005;28;20089;-50
2022/07/16 11:29:01;;;;;;;4.80;1.60;;;26.30;61.10;;;;;;5053457;28;20025;-47
2022/07/16 11:31:32;;;;;;;2.70;1.58;;;26.30;61.10;;;;;;5054029;28;20021;-51
2022/07/16 11:34:05;;;;;;;3.63;2.17;;;26.30;59.90;;;;;;5054065;28;20029;-51
2022/07/16 11:36:36;;;;;;;3.20;1.58;;;26.20;60.90;;;;;;5054031;28;20366;-47
2022/07/16 11:39:12;;;;;;;3.42;1.60;;;26.00;61.30;;;;;;5051944;28;20025;-47
2022/07/16 11:41:40;;;;;;;2.83;1.55;;;25.70;62.10;;;;;;5054006;28;20028;-52
2022/07/16 11:44:14;;;;;;;8.32;1.77;;;25.60;62.50;;;;;;5054171;28;20017;-46
2022/07/16 11:46:55;;;;;;;3.70;1.70;;;25.70;62.60;;;;;;5052962;28;20032;-44
2022/07/16 11:49:22;;;;;;;4.03;1.67;;;25.70;62.70;;;;;;5053455;28;20021;-46
2022/07/16 11:51:47;;;;;;;2.17;1.50;;;25.80;62.80;;;;;;5053778;28;20033;-47
2022/07/16 11:54:13;;;;;;;7.20;1.45;;;25.80;63.40;;;;;;5053819;28;20032;-51
2022/07/16 11:56:40;;;;;;;7.28;1.90;;;25.90;62.90;;;;;;5053818;28;20064;-47
2022/07/16 11:59:18;;;;;;;9.70;1.73;;;25.90;62.20;;;;;;5052864;28;20043;-46
2022/07/16 12:01:43;;;;;;;3.30;1.80;;;25.70;63.00;;;;;;5053955;28;20052;-45
2022/07/16 12:04:09;;;;;;;3.65;1.50;;;25.80;63.60;;;;;;5053580;28;20500;-49
2022/07/16 12:06:36;;;;;;;5.30;1.50;;;25.80;63.60;;;;;;5053395;28;20029;-45
2022/07/16 12:09:01;;;;;;;9.45;1.90;;;25.60;62.80;;;;;;5052379;28;20083;-48
2022/07/16 12:11:35;;;;;;;3.00;1.50;;;25.50;63.30;;;;;;5053154;28;20480;-49
2022/07/16 12:14:02;;;;;;;4.30;1.50;;;25.60;63.70;;;;;;5053352;28;20037;-45
2022/07/16 12:16:28;;;;;;;6.72;1.67;;;25.70;64.40;;;;;;5053184;28;20028;-46
2022/07/16 12:19:02;;;;;;;2.80;1.40;;;25.70;62.80;;;;;;5052071;28;20021;-47
2022/07/16 12:21:33;;;;;;;8.33;1.70;;;25.70;62.70;;;;;;5052855;28;20027;-48
2022/07/16 12:24:00;;;;;;;2.63;1.73;;;25.60;61.90;;;;;;5052316;28;20048;-46
2022/07/16 12:26:34;;;;;;;3.53;1.55;;;25.30;62.80;;;;;;5053023;28;20029;-46
2022/07/16 12:29:00;;;;;;;4.10;1.60;;;25.50;63.60;;;;;;5051910;28;20025;-48
2022/07/16 12:31:29;;;;;;;17.52;8.85;;;25.60;63.30;;;;;;5052791;28;20029;-48
2022/07/16 12:33:56;;;;;;;3.97;2.40;;;25.60;63.60;;;;;;5052432;28;20060;-47
2022/07/16 12:36:29;;;;;;;3.03;1.60;;;25.30;64.70;;;;;;5052462;28;20053;-48
2022/07/16 12:39:02;;;;;;;5.65;1.60;;;25.20;63.50;;;;;;5067992;22;20092;-50
2022/07/16 12:41:36;;;;;;;5.55;1.75;;;25.30;65.00;;;;;;4990307;28;20079;-49
2022/07/16 12:44:04;;;;;;;7.10;1.40;;;25.10;65.20;;;;;;4990302;28;20101;-49
2022/07/16 12:46:35;;;;;;;3.58;1.63;;;24.90;65.30;;;;;;4990229;28;20780;-48
2022/07/16 12:49:03;;;;;;;3.70;1.65;;;24.60;66.60;;;;;;4989522;28;20062;-44
2022/07/16 12:51:39;;;;;;;2.70;1.48;;;24.60;66.40;;;;;;4990052;28;20394;-46
2022/07/16 12:54:07;;;;;;;6.13;1.67;;;24.40;67.30;;;;;;4990179;28;20030;-48